Time;durP1;ratioP1;P1;durP2;ratioP2;P2;SDS_P1;SDS_P2;PMS_P1;PMS_P2;Temp;Humidity;BMP_temperature;BMP_pressure;BME280_temperature;BME280_humidity;BME280_pressure;Samples;Min_cycle;Max_cycle;Signal;HPM_P1;HPM_P2
2023/04/10 00:03:30;;;;;;;;;;;;;;;8.74;74.87988;102150.6;;;;-72
2023/04/10 00:08:29;;;;;;;;;;;;;;;8.69;75.02539;102141.7;;;;-73
2023/04/10 00:13:33;;;;;;;;;;;;;;;8.69;75.0918;102130.5;;;;-73
2023/04/10 00:18:29;;;;;;;;;;;;;;;8.66;75.00977;102122.4;;;;-73
2023/04/10 00:23:30;;;;;;;;;;;;;;;8.66;74.71191;102117.9;;;;-72
2023/04/10 00:27:44;;;;;;;16.9;9.1;;;;;;;;;;;;;-73
2023/04/10 00:28:29;;;;;;;;;;;;;;;8.62;75.2334;102115.1;;;;-73
2023/04/10 00:33:29;;;;;;;;;;;;;;;8.54;75.13281;102111.2;;;;-72
2023/04/10 00:38:29;;;;;;;;;;;;;;;8.52;75.18262;102103.4;;;;-72
2023/04/10 00:43:31;;;;;;;;;;;;;;;8.5;75.02539;102099.7;;;;-74
2023/04/10 00:48:30;;;;;;;;;;;;;;;8.47;75.12988;102099.2;;;;-73
2023/04/10 00:53:29;;;;;;;;;;;;;;;8.45;74.97363;102096.9;;;;-73
2023/04/10 00:57:47;;;;;;;14.2;7.6;;;;;;;;;;;;;-72
2023/04/10 00:58:29;;;;;;;;;;;;;;;8.41;75.24316;102094;;;;-73
2023/04/10 01:03:29;;;;;;;;;;;;;;;8.39;75.26074;102083.6;;;;-73
2023/04/10 01:08:39;;;;;;;;;;;;;;;8.35;75.06641;102071;;;;-73
2023/04/10 01:13:31;;;;;;;;;;;;;;;8.31;75.10449;102061.3;;;;-73
2023/04/10 01:18:32;;;;;;;;;;;;;;;8.27;75.31738;102055.6;;;;-73
2023/04/10 01:23:40;;;;;;;;;;;;;;;8.26;75.40527;102053.2;;;;-73
2023/04/10 01:27:49;;;;;;;13.9;7.2;;;;;;;;;;;;;-73
2023/04/10 01:28:36;;;;;;;;;;;;;;;8.22;75.60645;102049.2;;;;-71
2023/04/10 01:33:32;;;;;;;;;;;;;;;8.2;75.42676;102045.6;;;;-73
2023/04/10 01:38:31;;;;;;;;;;;;;;;8.14;75.57031;102037.1;;;;-74
2023/04/10 01:43:30;;;;;;;;;;;;;;;8.13;75.55762;102031.4;;;;-73
2023/04/10 01:48:29;;;;;;;;;;;;;;;8.07;75.54688;102032.8;;;;-73
2023/04/10 01:53:34;;;;;;;;;;;;;;;8.06;75.58887;102024.5;;;;-73
2023/04/10 01:57:47;;;;;;;13.8;7.1;;;;;;;;;;;;;-72
2023/04/10 01:58:29;;;;;;;;;;;;;;;8.01;75.56836;102032.6;;;;-74
2023/04/10 02:03:29;;;;;;;;;;;;;;;7.99;75.66504;102026.7;;;;-74
2023/04/10 02:08:33;;;;;;;;;;;;;;;7.91;75.77344;102016.2;;;;-73
2023/04/10 02:13:30;;;;;;;;;;;;;;;7.92;75.89551;102014.4;;;;-72
2023/04/10 02:18:29;;;;;;;;;;;;;;;7.89;75.83594;102012.1;;;;-72
2023/04/10 02:23:29;;;;;;;;;;;;;;;7.83;76.04688;101995.6;;;;-73
2023/04/10 02:27:48;;;;;;;12.5;6.5;;;;;;;;;;;;;-73
2023/04/10 02:28:29;;;;;;;;;;;;;;;7.82;76.05273;101998;;;;-73
2023/04/10 02:33:29;;;;;;;;;;;;;;;7.83;75.7793;102002.9;;;;-75
2023/04/10 02:38:29;;;;;;;;;;;;;;;7.78;76.18945;102006.3;;;;-75
2023/04/10 02:43:32;;;;;;;;;;;;;;;7.74;76.10645;102012.2;;;;-74
2023/04/10 02:48:29;;;;;;;;;;;;;;;7.74;75.95215;102014.4;;;;-73
2023/04/10 02:53:29;;;;;;;;;;;;;;;7.71;76.06836;102015.5;;;;-76
2023/04/10 02:57:50;;;;;;;14;6.8;;;;;;;;;;;;;-73
2023/04/10 02:58:30;;;;;;;;;;;;;;;7.7;76.15527;102007.4;;;;-73
2023/04/10 03:03:30;;;;;;;;;;;;;;;7.68;75.98535;102006.5;;;;-72
2023/04/10 03:08:29;;;;;;;;;;;;;;;7.64;76.2207;102008.8;;;;-72
2023/04/10 03:13:29;;;;;;;;;;;;;;;7.62;76.22852;102003.6;;;;-73
2023/04/10 03:18:33;;;;;;;;;;;;;;;7.56;76.02051;101997.9;;;;-72
2023/04/10 03:23:29;;;;;;;;;;;;;;;7.57;76.06445;101991;;;;-74
2023/04/10 03:27:50;;;;;;;11.4;5.8;;;;;;;;;;;;;-73
2023/04/10 03:28:35;;;;;;;;;;;;;;;7.53;76.16699;101985.8;;;;-72
2023/04/10 03:33:29;;;;;;;;;;;;;;;7.55;76.32617;101976.6;;;;-73
2023/04/10 03:38:29;;;;;;;;;;;;;;;7.55;75.91699;101971.6;;;;-73
2023/04/10 03:43:29;;;;;;;;;;;;;;;7.51;76.02246;101965.4;;;;-72
2023/04/10 03:48:31;;;;;;;;;;;;;;;7.5;76.52539;101955;;;;-74
2023/04/10 03:53:29;;;;;;;;;;;;;;;7.5;76.08496;101951.2;;;;-73
2023/04/10 03:57:51;;;;;;;12.3;5.8;;;;;;;;;;;;;-74
2023/04/10 03:58:30;;;;;;;;;;;;;;;7.47;76.33301;101954.7;;;;-73
2023/04/10 04:03:29;;;;;;;;;;;;;;;7.47;76.26758;101943.2;;;;-73
2023/04/10 04:08:29;;;;;;;;;;;;;;;7.45;76;101934.1;;;;-74
2023/04/10 04:13:29;;;;;;;;;;;;;;;7.46;76.41016;101933.1;;;;-73
2023/04/10 04:18:29;;;;;;;;;;;;;;;7.43;76.60156;101931.1;;;;-73
2023/04/10 04:23:29;;;;;;;;;;;;;;;7.46;76.46387;101927.9;;;;-73
2023/04/10 04:27:53;;;;;;;10.6;5.6;;;;;;;;;;;;;-72
2023/04/10 04:28:29;;;;;;;;;;;;;;;7.46;76.60645;101919;;;;-73
2023/04/10 04:33:29;;;;;;;;;;;;;;;7.47;76.61914;101914.9;;;;-73
2023/04/10 04:38:31;;;;;;;;;;;;;;;7.49;76.16211;101910.7;;;;-73
2023/04/10 04:43:29;;;;;;;;;;;;;;;7.47;76.34473;101915.7;;;;-73
2023/04/10 04:48:29;;;;;;;;;;;;;;;7.47;76.30176;101907.7;;;;-71
2023/04/10 04:53:31;;;;;;;;;;;;;;;7.47;76.24512;101900.3;;;;-75
2023/04/10 04:57:52;;;;;;;10.1;5;;;;;;;;;;;;;-74
2023/04/10 04:58:29;;;;;;;;;;;;;;;7.5;76.16406;101901.6;;;;-72
2023/04/10 05:03:29;;;;;;;;;;;;;;;7.52;76.1875;101902.1;;;;-74
2023/04/10 05:08:29;;;;;;;;;;;;;;;7.54;76.12598;101900.4;;;;-73
2023/04/10 05:13:29;;;;;;;;;;;;;;;7.56;76.2959;101889;;;;-73
2023/04/10 05:18:30;;;;;;;;;;;;;;;7.61;76.13867;101894.6;;;;-73
2023/04/10 05:23:29;;;;;;;;;;;;;;;7.65;76.34277;101883.2;;;;-73
2023/04/10 05:27:53;;;;;;;9.4;5;;;;;;;;;;;;;-73
2023/04/10 05:28:29;;;;;;;;;;;;;;;7.7;76.00098;101885.4;;;;-73
2023/04/10 05:38:29;;;;;;;;;;;;;;;7.75;75.66797;101902.3;;;;-74
2023/04/10 05:43:29;;;;;;;;;;;;;;;7.78;75.83789;101900.3;;;;-72
2023/04/10 05:48:29;;;;;;;;;;;;;;;7.83;75.87988;101899.4;;;;-75
2023/04/10 05:53:32;;;;;;;;;;;;;;;7.9;75.61621;101898.7;;;;-75
2023/04/10 05:57:56;;;;;;;9;4.9;;;;;;;;;;;;;-73
2023/04/10 05:58:33;;;;;;;;;;;;;;;7.93;75.65527;101896.5;;;;-73
2023/04/10 06:03:30;;;;;;;;;;;;;;;7.99;75.86328;101887.5;;;;-73
2023/04/10 06:08:28;;;;;;;;;;;;;;;8.07;75.77832;101879.1;;;;-73
2023/04/10 06:13:31;;;;;;;;;;;;;;;8.12;76.5127;101877.9;;;;-74
2023/04/10 06:18:31;;;;;;;;;;;;;;;8.17;75.93848;101865.1;;;;-73
2023/04/10 06:23:29;;;;;;;;;;;;;;;8.21;76.41992;101861.4;;;;-73
2023/04/10 06:27:55;;;;;;;11.6;5.5;;;;;;;;;;;;;-73
2023/04/10 06:28:31;;;;;;;;;;;;;;;8.28;76.37793;101844.5;;;;-72
2023/04/10 06:33:29;;;;;;;;;;;;;;;8.35;76.10254;101832.8;;;;-73
2023/04/10 06:38:36;;;;;;;;;;;;;;;8.42;75.92676;101822;;;;-73
2023/04/10 06:43:30;;;;;;;;;;;;;;;8.47;75.95801;101812.3;;;;-73
2023/04/10 06:48:29;;;;;;;;;;;;;;;8.52;75.90137;101811.9;;;;-73
2023/04/10 06:53:29;;;;;;;;;;;;;;;8.6;75.74902;101802.4;;;;-72
2023/04/10 06:57:56;;;;;;;10.9;5.4;;;;;;;;;;;;;-72
2023/04/10 06:58:29;;;;;;;;;;;;;;;8.66;75.68262;101794.7;;;;-74
2023/04/10 07:03:32;;;;;;;;;;;;;;;8.76;75.49023;101787.5;;;;-72
2023/04/10 07:08:32;;;;;;;;;;;;;;;8.83;75.32617;101782.5;;;;-73
2023/04/10 07:13:29;;;;;;;;;;;;;;;8.93;75.0127;101779;;;;-74
2023/04/10 07:18:29;;;;;;;;;;;;;;;9.06;74.52637;101770.3;;;;-73
2023/04/10 07:23:33;;;;;;;;;;;;;;;9.22;74.24512;101762.8;;;;-74
2023/04/10 07:27:57;;;;;;;10.8;5.7;;;;;;;;;;;;;-73
2023/04/10 07:28:32;;;;;;;;;;;;;;;9.37;73.90332;101766.3;;;;-72
2023/04/10 07:33:29;;;;;;;;;;;;;;;9.49;73.18457;101755.8;;;;-73
2023/04/10 07:38:29;;;;;;;;;;;;;;;9.61;73.12695;101747.5;;;;-74
2023/04/10 07:43:31;;;;;;;;;;;;;;;9.71;72.80078;101740.1;;;;-75
2023/04/10 07:48:29;;;;;;;;;;;;;;;9.78;72.56934;101734.1;;;;-73
2023/04/10 07:53:34;;;;;;;;;;;;;;;9.87;72.19629;101730.6;;;;-73
2023/04/10 07:57:57;;;;;;;11.7;6;;;;;;;;;;;;;-72
2023/04/10 07:58:29;;;;;;;;;;;;;;;9.98;71.99316;101725.5;;;;-74
2023/04/10 08:03:29;;;;;;;;;;;;;;;10.15;71.89941;101712.6;;;;-73
2023/04/10 08:08:29;;;;;;;;;;;;;;;10.3;71.61328;101712.5;;;;-73
2023/04/10 08:13:29;;;;;;;;;;;;;;;10.52;71.06152;101694.1;;;;-73
2023/04/10 08:18:29;;;;;;;;;;;;;;;10.63;70.49219;101683.6;;;;-74
2023/04/10 08:23:31;;;;;;;;;;;;;;;10.68;70.45508;101683.1;;;;-73
2023/04/10 08:27:59;;;;;;;11.7;6.5;;;;;;;;;;;;;-73
2023/04/10 08:28:31;;;;;;;;;;;;;;;10.77;70.24805;101676.6;;;;-73
2023/04/10 08:33:29;;;;;;;;;;;;;;;10.86;69.99414;101664.3;;;;-72
2023/04/10 08:38:29;;;;;;;;;;;;;;;10.89;69.7334;101654.8;;;;-73
2023/04/10 08:43:29;;;;;;;;;;;;;;;10.94;69.44238;101658.2;;;;-73
2023/04/10 08:53:31;;;;;;;;;;;;;;;10.98;69.84863;101650.5;;;;-72
2023/04/10 08:58:02;;;;;;;10.4;6.4;;;;;;;;;;;;;-72
2023/04/10 08:58:29;;;;;;;;;;;;;;;10.99;69.37305;101643.8;;;;-72
2023/04/10 09:03:29;;;;;;;;;;;;;;;11;69.61914;101633.7;;;;-73
2023/04/10 09:08:29;;;;;;;;;;;;;;;11.08;69.70898;101628.6;;;;-73
2023/04/10 09:13:41;;;;;;;;;;;;;;;11.14;69.19629;101613.1;;;;-74
2023/04/10 09:18:39;;;;;;;;;;;;;;;11.23;69.04297;101608;;;;-74
2023/04/10 09:23:29;;;;;;;;;;;;;;;11.31;69.11133;101603.7;;;;-72
2023/04/10 09:28:07;;;;;;;11.4;6.9;;;;;;;;;;;;;-74
2023/04/10 09:28:29;;;;;;;;;;;;;;;11.45;68.5;101595.1;;;;-73
2023/04/10 09:33:30;;;;;;;;;;;;;;;11.59;68.3877;101587;;;;-72
2023/04/10 09:38:29;;;;;;;;;;;;;;;11.78;68.06152;101576.4;;;;-73
2023/04/10 09:43:30;;;;;;;;;;;;;;;11.98;67.8125;101578.6;;;;-72
2023/04/10 09:48:29;;;;;;;;;;;;;;;12.14;67.14648;101563.1;;;;-72
2023/04/10 09:53:30;;;;;;;;;;;;;;;12.24;66.62793;101547.3;;;;-75
2023/04/10 09:58:04;;;;;;;10.9;6.7;;;;;;;;;;;;;-74
2023/04/10 09:58:31;;;;;;;;;;;;;;;12.4;66.71875;101538.2;;;;-76
2023/04/10 10:03:37;;;;;;;;;;;;;;;12.5;66.30957;101530.8;;;;-72
2023/04/10 10:08:29;;;;;;;;;;;;;;;12.53;66.03516;101522.2;;;;-73
2023/04/10 10:13:35;;;;;;;;;;;;;;;12.64;66.05273;101503.3;;;;-73
2023/04/10 10:18:41;;;;;;;;;;;;;;;12.71;65.625;101500.9;;;;-73
2023/04/10 10:23:29;;;;;;;;;;;;;;;12.87;65.83008;101489.1;;;;-72
2023/04/10 10:28:06;;;;;;;11.1;6.7;;;;;;;;;;;;;-74
2023/04/10 10:28:31;;;;;;;;;;;;;;;12.95;66.39941;101482.9;;;;-72
2023/04/10 10:33:29;;;;;;;;;;;;;;;13.08;65.52441;101468.9;;;;-71
2023/04/10 10:38:29;;;;;;;;;;;;;;;13.15;64.71875;101462.5;;;;-72
2023/04/10 10:43:31;;;;;;;;;;;;;;;13.27;65.0166;101466.5;;;;-71
2023/04/10 10:48:33;;;;;;;;;;;;;;;13.34;64.6709;101460.2;;;;-74
2023/04/10 10:53:45;;;;;;;;;;;;;;;13.45;64.37207;101455.5;;;;-73
2023/04/10 10:58:06;;;;;;;11;6.9;;;;;;;;;;;;;-74
2023/04/10 10:58:38;;;;;;;;;;;;;;;13.65;64.2666;101426.4;;;;-72
2023/04/10 11:03:37;;;;;;;;;;;;;;;13.86;64.1084;101419.2;;;;-74
2023/04/10 11:08:43;;;;;;;;;;;;;;;14.04;64.72754;101395.9;;;;-73
2023/04/10 11:13:29;;;;;;;;;;;;;;;14.14;62.9707;101386.3;;;;-74
2023/04/10 11:18:45;;;;;;;;;;;;;;;14.22;63.07227;101390.6;;;;-73
2023/04/10 11:23:28;;;;;;;;;;;;;;;14.37;62.9248;101378.6;;;;-72
2023/04/10 11:28:07;;;;;;;11.8;6.8;;;;;;;;;;;;;-73
2023/04/10 11:28:44;;;;;;;;;;;;;;;14.52;63.31738;101371.8;;;;-72
2023/04/10 11:33:29;;;;;;;;;;;;;;;14.64;63.04199;101347.6;;;;-74
2023/04/10 11:38:28;;;;;;;;;;;;;;;14.78;62.20801;101329.9;;;;-73
2023/04/10 11:43:29;;;;;;;;;;;;;;;14.92;62.55469;101323.2;;;;-74
2023/04/10 11:48:30;;;;;;;;;;;;;;;15.09;62.5791;101310.5;;;;-72
2023/04/10 11:53:29;;;;;;;;;;;;;;;15.21;62.33594;101294.4;;;;-72
2023/04/10 11:58:19;;;;;;;17.6;9;;;;;;;;;;;;;-74
2023/04/10 11:58:33;;;;;;;;;;;;;;;15.18;62.13086;101287.2;;;;-73
2023/04/10 12:03:40;;;;;;;;;;;;;;;15.25;61.99512;101267.4;;;;-73
2023/04/10 12:08:33;;;;;;;;;;;;;;;15.18;61.28809;101267.1;;;;-73
2023/04/10 12:13:32;;;;;;;;;;;;;;;15.09;62.10742;101264.9;;;;-73
2023/04/10 12:18:29;;;;;;;;;;;;;;;14.95;61.99707;101240.6;;;;-73
2023/04/10 12:23:29;;;;;;;;;;;;;;;14.89;62.19141;101240.9;;;;-72
2023/04/10 12:28:12;;;;;;;13.6;6.9;;;;;;;;;;;;;-72
2023/04/10 12:28:29;;;;;;;;;;;;;;;14.84;62.62207;101227;;;;-72
2023/04/10 12:33:29;;;;;;;;;;;;;;;14.67;61.86719;101211.2;;;;-72
2023/04/10 12:38:47;;;;;;;;;;;;;;;14.61;62.33105;101203.9;;;;-73
2023/04/10 12:43:40;;;;;;;;;;;;;;;14.6;62.87891;101194.4;;;;-72
2023/04/10 12:48:30;;;;;;;;;;;;;;;14.57;62.875;101194.5;;;;-74
2023/04/10 12:53:29;;;;;;;;;;;;;;;14.56;64.27637;101201.9;;;;-74
2023/04/10 12:58:26;;;;;;;9.8;5.7;;;;;;;;;;;;;-72
2023/04/10 12:58:37;;;;;;;;;;;;;;;14.46;63.31934;101201.8;;;;-73
2023/04/10 13:03:29;;;;;;;;;;;;;;;14.44;63.30566;101190.9;;;;-73
2023/04/10 13:08:31;;;;;;;;;;;;;;;14.37;64.43945;101187.5;;;;-73
2023/04/10 13:13:28;;;;;;;;;;;;;;;14.22;65.62891;101174.7;;;;-74
2023/04/10 13:18:31;;;;;;;;;;;;;;;14.23;65.96582;101175.2;;;;-73
2023/04/10 13:23:29;;;;;;;;;;;;;;;14.1;67.89453;101155;;;;-74
2023/04/10 13:28:17;;;;;;;8.9;5.5;;;;;;;;;;;;;-73
2023/04/10 13:28:28;;;;;;;;;;;;;;;14.03;68.6123;101137.7;;;;-72
2023/04/10 13:33:29;;;;;;;;;;;;;;;13.9;68.71484;101117;;;;-74
2023/04/10 13:38:29;;;;;;;;;;;;;;;13.72;70.33008;101103.9;;;;-73
2023/04/10 13:43:28;;;;;;;;;;;;;;;13.68;70.60254;101096.3;;;;-73
2023/04/10 13:48:29;;;;;;;;;;;;;;;13.54;71.82227;101084.8;;;;-73
2023/04/10 13:53:29;;;;;;;;;;;;;;;13.45;72.33008;101084.5;;;;-73
2023/04/10 13:58:18;;;;;;;9;5.5;;;;;;;;;;;;;-73
2023/04/10 13:58:30;;;;;;;;;;;;;;;13.35;72.50391;101085.5;;;;-73
2023/04/10 14:03:31;;;;;;;;;;;;;;;13.31;73.94727;101084.4;;;;-73
2023/04/10 14:08:28;;;;;;;;;;;;;;;13.29;73.63281;101072.1;;;;-72
2023/04/10 14:13:29;;;;;;;;;;;;;;;13.23;75.3623;101068.7;;;;-73
2023/04/10 14:18:28;;;;;;;;;;;;;;;13.1;75.61914;101061.1;;;;-74
2023/04/10 14:23:28;;;;;;;;;;;;;;;13;76.97168;101046.4;;;;-73
2023/04/10 14:28:20;;;;;;;9.5;5.4;;;;;;;;;;;;;-74
2023/04/10 14:28:33;;;;;;;;;;;;;;;12.81;78.39648;101036.2;;;;-73
2023/04/10 14:33:29;;;;;;;;;;;;;;;12.78;78.47949;101034.9;;;;-73
2023/04/10 14:38:28;;;;;;;;;;;;;;;12.65;78.74707;101034.1;;;;-72
2023/04/10 14:43:28;;;;;;;;;;;;;;;12.5;79.97559;101021.1;;;;-73
2023/04/10 14:48:28;;;;;;;;;;;;;;;12.42;80.64941;101009.4;;;;-73
2023/04/10 14:53:28;;;;;;;;;;;;;;;12.36;80.71777;101007.5;;;;-73
2023/04/10 14:58:22;;;;;;;11;5.6;;;;;;;;;;;;;-72
2023/04/10 14:58:32;;;;;;;;;;;;;;;12.29;80.97266;100994.1;;;;-74
2023/04/10 15:03:28;;;;;;;;;;;;;;;12.15;84.28613;100993.3;;;;-73
2023/04/10 15:08:28;;;;;;;;;;;;;;;12.05;85.59668;101008.8;;;;-74
2023/04/10 15:13:32;;;;;;;;;;;;;;;11.99;84.94141;101017;;;;-73
2023/04/10 15:18:29;;;;;;;;;;;;;;;11.88;86.22656;101001.9;;;;-74
2023/04/10 15:23:29;;;;;;;;;;;;;;;11.8;85.93555;101015.1;;;;-74
2023/04/10 15:28:24;;;;;;;11.5;5.7;;;;;;;;;;;;;-74
2023/04/10 15:28:37;;;;;;;;;;;;;;;11.69;88.65918;101011.1;;;;-74
2023/04/10 15:33:29;;;;;;;;;;;;;;;11.71;87.7002;100997;;;;-74
2023/04/10 15:38:29;;;;;;;;;;;;;;;11.67;88.29004;100978.9;;;;-74
2023/04/10 15:43:29;;;;;;;;;;;;;;;11.65;86.33887;100966.8;;;;-75
2023/04/10 15:48:28;;;;;;;;;;;;;;;11.6;89.42676;100965.4;;;;-73
2023/04/10 15:53:29;;;;;;;;;;;;;;;11.58;87.43164;100957.9;;;;-75
2023/04/10 15:58:29;;;;;;;11.2;5.5;;;;;;;;;;;;;-74
2023/04/10 15:58:38;;;;;;;;;;;;;;;11.52;89.32324;100945.8;;;;-75
2023/04/10 16:03:29;;;;;;;;;;;;;;;11.5;89.01855;100954.3;;;;-74
2023/04/10 16:08:28;;;;;;;;;;;;;;;11.48;89.40234;100958.9;;;;-74
2023/04/10 16:13:29;;;;;;;;;;;;;;;11.47;90.92773;100945.4;;;;-74
2023/04/10 16:18:28;;;;;;;;;;;;;;;11.46;90.79102;100918.3;;;;-74
2023/04/10 16:23:32;;;;;;;;;;;;;;;11.48;88.70508;100921;;;;-75
2023/04/10 16:28:28;;;;;;;8.5;4.4;;;;;;;;;;;;;-75
2023/04/10 16:28:38;;;;;;;;;;;;;;;11.44;90.25684;100900.5;;;;-74
2023/04/10 16:33:29;;;;;;;;;;;;;;;11.38;92.93945;100914.9;;;;-74
2023/04/10 16:38:30;;;;;;;;;;;;;;;11.35;92.14941;100923.6;;;;-73
2023/04/10 16:43:29;;;;;;;;;;;;;;;11.34;93.62598;100926.4;;;;-74
2023/04/10 16:48:29;;;;;;;;;;;;;;;11.31;94.38184;100923.1;;;;-74
2023/04/10 16:53:31;;;;;;;;;;;;;;;11.27;93.37109;100907.9;;;;-74
2023/04/10 16:58:31;;;;;;;;;;;;;;;11.29;92.61328;100901.8;;;;-73
2023/04/10 16:58:41;;;;;;;6.5;3.7;;;;;;;;;;;;;-73
2023/04/10 17:03:29;;;;;;;;;;;;;;;11.27;93.11328;100894.5;;;;-73
2023/04/10 17:08:29;;;;;;;;;;;;;;;11.25;94.92188;100874.1;;;;-73
2023/04/10 17:13:30;;;;;;;;;;;;;;;11.22;93.64648;100865.6;;;;-73
2023/04/10 17:18:29;;;;;;;;;;;;;;;11.24;92.2041;100861.5;;;;-73
2023/04/10 17:23:28;;;;;;;;;;;;;;;11.18;93.83594;100853.8;;;;-73
2023/04/10 17:28:29;;;;;;;;;;;;;;;11.16;93.66602;100850.2;;;;-73
2023/04/10 17:28:38;;;;;;;5.6;3.1;;;;;;;;;;;;;-73
2023/04/10 17:33:28;;;;;;;;;;;;;;;11.11;93.7998;100853.6;;;;-73
2023/04/10 17:38:29;;;;;;;;;;;;;;;11.11;94.61426;100861.8;;;;-73
2023/04/10 17:43:28;;;;;;;;;;;;;;;11.09;93.73926;100850.6;;;;-73
2023/04/10 17:48:29;;;;;;;;;;;;;;;11.07;92.68848;100840.4;;;;-73
2023/04/10 17:53:30;;;;;;;;;;;;;;;11.06;92.80566;100833;;;;-74
2023/04/10 17:58:28;;;;;;;;;;;;;;;11.03;93.93457;100823.5;;;;-73
2023/04/10 17:58:41;;;;;;;7.7;3.4;;;;;;;;;;;;;-73
2023/04/10 18:03:28;;;;;;;;;;;;;;;11.03;93.58398;100835.5;;;;-73
2023/04/10 18:08:31;;;;;;;;;;;;;;;11.02;93.19336;100833.2;;;;-73
2023/04/10 18:13:31;;;;;;;;;;;;;;;11;94.51367;100825.8;;;;-74
2023/04/10 18:18:31;;;;;;;;;;;;;;;10.99;93.9248;100816;;;;-73
2023/04/10 18:23:29;;;;;;;;;;;;;;;10.94;94.09375;100810.2;;;;-74
2023/04/10 18:28:29;;;;;;;;;;;;;;;10.93;93.8916;100822.3;;;;-72
2023/04/10 18:28:40;;;;;;;7.5;3.1;;;;;;;;;;;;;-72
2023/04/10 18:33:29;;;;;;;;;;;;;;;10.87;93.89063;100827.8;;;;-71
2023/04/10 18:38:29;;;;;;;;;;;;;;;10.84;93.9707;100818.8;;;;-72
2023/04/10 18:43:29;;;;;;;;;;;;;;;10.8;93.95215;100818.2;;;;-71
2023/04/10 18:48:28;;;;;;;;;;;;;;;10.74;93.59668;100827.3;;;;-71
2023/04/10 18:53:29;;;;;;;;;;;;;;;10.69;92.93652;100821.4;;;;-71
2023/04/10 18:58:31;;;;;;;;;;;;;;;10.63;93.0791;100821.5;;;;-73
2023/04/10 18:58:40;;;;;;;5.9;2.1;;;;;;;;;;;;;-73
2023/04/10 19:03:32;;;;;;;;;;;;;;;10.58;93.1123;100816.9;;;;-73
2023/04/10 19:08:30;;;;;;;;;;;;;;;10.51;92.75488;100808.1;;;;-74
2023/04/10 19:13:31;;;;;;;;;;;;;;;10.44;92.9834;100804;;;;-73
2023/04/10 19:18:33;;;;;;;;;;;;;;;10.4;92.76465;100796.3;;;;-72
2023/04/10 19:23:28;;;;;;;;;;;;;;;10.32;92.74902;100804.8;;;;-73
2023/04/10 19:28:32;;;;;;;;;;;;;;;10.27;92.50684;100809.1;;;;-73
2023/04/10 19:28:41;;;;;;;9;2.6;;;;;;;;;;;;;-73
2023/04/10 19:33:28;;;;;;;;;;;;;;;10.21;93.50586;100821.8;;;;-74
2023/04/10 19:38:31;;;;;;;;;;;;;;;10.15;92.61328;100823.9;;;;-73
2023/04/10 19:43:29;;;;;;;;;;;;;;;10.11;92.94531;100817.8;;;;-74
2023/04/10 19:48:34;;;;;;;;;;;;;;;10.05;92.22949;100810.7;;;;-72
2023/04/10 19:53:28;;;;;;;;;;;;;;;10.02;93.04688;100813.5;;;;-72
2023/04/10 19:58:29;;;;;;;;;;;;;;;9.97;93.89551;100813.9;;;;-73
2023/04/10 19:58:48;;;;;;;10.7;2.4;;;;;;;;;;;;;-73
2023/04/10 20:03:30;;;;;;;;;;;;;;;9.93;93.82227;100812.2;;;;-74
2023/04/10 20:08:29;;;;;;;;;;;;;;;9.88;92.73438;100821.5;;;;-74
2023/04/10 20:13:29;;;;;;;;;;;;;;;9.82;92.55566;100824.2;;;;-73
2023/04/10 20:18:29;;;;;;;;;;;;;;;9.81;93.37891;100822.4;;;;-73
2023/04/10 20:23:28;;;;;;;;;;;;;;;9.76;93.68555;100812.7;;;;-73
2023/04/10 20:28:33;;;;;;;;;;;;;;;9.72;93.96191;100808.6;;;;-73
2023/04/10 20:28:47;;;;;;;9;2.2;;;;;;;;;;;;;-73
2023/04/10 20:33:29;;;;;;;;;;;;;;;9.69;94.29688;100807.7;;;;-73
2023/04/10 20:38:28;;;;;;;;;;;;;;;9.67;94.01855;100797.3;;;;-72
2023/04/10 20:43:29;;;;;;;;;;;;;;;9.62;93.3584;100796.1;;;;-71
2023/04/10 20:48:28;;;;;;;;;;;;;;;9.58;92.47266;100785.7;;;;-73
2023/04/10 20:53:29;;;;;;;;;;;;;;;9.56;93.77539;100776.6;;;;-73
2023/04/10 20:58:28;;;;;;;;;;;;;;;9.53;93.4834;100753.6;;;;-73
2023/04/10 20:58:42;;;;;;;11.2;2.4;;;;;;;;;;;;;-73
2023/04/10 21:03:28;;;;;;;;;;;;;;;9.53;93.69238;100749.4;;;;-73
2023/04/10 21:08:31;;;;;;;;;;;;;;;9.53;93.72559;100733;;;;-73
2023/04/10 21:13:28;;;;;;;;;;;;;;;9.58;95.25195;100764.6;;;;-73
2023/04/10 21:18:29;;;;;;;;;;;;;;;9.52;92.74316;100813.4;;;;-74
2023/04/10 21:23:28;;;;;;;;;;;;;;;9.34;92.2998;100814.2;;;;-74
2023/04/10 21:28:29;;;;;;;;;;;;;;;9.18;91.89258;100802.2;;;;-75
2023/04/10 21:28:52;;;;;;;11.2;1.9;;;;;;;;;;;;;-73
2023/04/10 21:33:29;;;;;;;;;;;;;;;9.01;92.09863;100772.4;;;;-73
2023/04/10 21:38:28;;;;;;;;;;;;;;;8.93;91.44434;100757.9;;;;-75
2023/04/10 21:43:28;;;;;;;;;;;;;;;8.83;91.4873;100740.3;;;;-75
2023/04/10 21:48:32;;;;;;;;;;;;;;;8.77;91.64063;100748.3;;;;-75
2023/04/10 21:53:29;;;;;;;;;;;;;;;8.76;91.27637;100742.9;;;;-76
2023/04/10 21:58:31;;;;;;;;;;;;;;;8.75;91.12012;100772.5;;;;-75
2023/04/10 21:58:44;;;;;;;9.6;1.9;;;;;;;;;;;;;-75
2023/04/10 22:03:30;;;;;;;;;;;;;;;8.79;93.11523;100776.2;;;;-75
2023/04/10 22:08:29;;;;;;;;;;;;;;;8.85;93.16211;100761.6;;;;-75
2023/04/10 22:13:28;;;;;;;;;;;;;;;8.89;93.57617;100777.2;;;;-75
2023/04/10 22:18:28;;;;;;;;;;;;;;;8.95;94.5791;100784.3;;;;-74
2023/04/10 22:23:28;;;;;;;;;;;;;;;8.94;93.37695;100800.6;;;;-74
2023/04/10 22:28:29;;;;;;;;;;;;;;;8.91;92.89941;100753.5;;;;-75
2023/04/10 22:28:48;;;;;;;16.7;2.4;;;;;;;;;;;;;-75
2023/04/10 22:33:28;;;;;;;;;;;;;;;8.86;92.18652;100747.2;;;;-74
2023/04/10 22:38:28;;;;;;;;;;;;;;;8.81;91.48535;100757.8;;;;-74
2023/04/10 22:43:29;;;;;;;;;;;;;;;8.74;91.45898;100756.9;;;;-74
2023/04/10 22:48:30;;;;;;;;;;;;;;;8.67;90.77344;100769.1;;;;-74
2023/04/10 22:53:29;;;;;;;;;;;;;;;8.57;90.48926;100776.2;;;;-73
2023/04/10 22:58:31;;;;;;;;;;;;;;;8.49;90.12109;100784.9;;;;-74
2023/04/10 22:58:46;;;;;;;10.2;1.5;;;;;;;;;;;;;-73
2023/04/10 23:03:28;;;;;;;;;;;;;;;8.4;90.10449;100792;;;;-74
2023/04/10 23:08:28;;;;;;;;;;;;;;;8.32;90.04297;100789.7;;;;-74
2023/04/10 23:13:28;;;;;;;;;;;;;;;8.28;90.14551;100794.4;;;;-73
2023/04/10 23:18:28;;;;;;;;;;;;;;;8.26;90.20605;100793.7;;;;-73
2023/04/10 23:23:28;;;;;;;;;;;;;;;8.23;90.03711;100798.8;;;;-74
2023/04/10 23:28:29;;;;;;;;;;;;;;;8.19;89.8291;100802.4;;;;-73
2023/04/10 23:28:47;;;;;;;10.9;1.5;;;;;;;;;;;;;-74
2023/04/10 23:33:28;;;;;;;;;;;;;;;8.16;90.12988;100797.8;;;;-74
2023/04/10 23:38:29;;;;;;;;;;;;;;;8.1;90.45898;100795.8;;;;-73
2023/04/10 23:43:28;;;;;;;;;;;;;;;8.08;90.00586;100798.4;;;;-74
2023/04/10 23:48:28;;;;;;;;;;;;;;;8.04;90.77441;100800.3;;;;-73
2023/04/10 23:53:28;;;;;;;;;;;;;;;8;90.89648;100799.3;;;;-73
2023/04/10 23:58:31;;;;;;;;;;;;;;;7.98;91.16895;100795.4;;;;-73
2023/04/10 23:58:48;;;;;;;11.3;1.8;;;;;;;;;;;;;-75
